createdAt,value
2023-04-23T00:02:36.342Z,15.50
2023-04-23T00:05:13.135Z,15.50
2023-04-23T00:07:48.366Z,15.50
2023-04-23T00:10:23.696Z,15.50
2023-04-23T00:12:59.436Z,15.50
2023-04-23T00:15:34.837Z,15.40
2023-04-23T00:18:09.980Z,15.50
2023-04-23T00:20:44.869Z,15.50
2023-04-23T00:23:19.742Z,15.50
2023-04-23T00:25:54.674Z,15.50
2023-04-23T00:28:29.547Z,15.50
2023-04-23T00:31:04.789Z,15.50
2023-04-23T00:33:39.901Z,15.40
2023-04-23T00:36:14.777Z,15.50
2023-04-23T00:38:49.680Z,15.40
2023-04-23T00:41:25.828Z,15.30
2023-04-23T00:44:01.731Z,15.40
2023-04-23T00:46:37.395Z,15.30
2023-04-23T00:49:14.090Z,15.40
2023-04-23T00:51:49.070Z,15.30
2023-04-23T00:54:23.948Z,15.20
2023-04-23T00:56:59.552Z,15.20
2023-04-23T00:59:36.252Z,15.10
2023-04-23T01:02:11.521Z,15.10
2023-04-23T01:04:51.483Z,15.10
2023-04-23T01:07:27.617Z,15.10
2023-04-23T01:10:05.071Z,15.10
2023-04-23T01:12:40.385Z,15.00
2023-04-23T01:15:15.373Z,15.00
2023-04-23T01:17:50.507Z,14.90
2023-04-23T01:20:25.629Z,14.90
2023-04-23T01:23:00.595Z,14.80
2023-04-23T01:25:35.645Z,14.80
2023-04-23T01:28:10.696Z,14.70
2023-04-23T01:30:46.796Z,14.70
2023-04-23T01:33:21.831Z,14.70
2023-04-23T01:35:57.625Z,14.80
2023-04-23T01:38:34.273Z,14.70
2023-04-23T01:41:09.207Z,14.70
2023-04-23T01:43:45.471Z,14.60
2023-04-23T01:46:21.647Z,14.60
2023-04-23T01:48:56.630Z,14.50
2023-04-23T01:51:31.571Z,14.50
2023-04-23T01:54:06.501Z,14.50
2023-04-23T01:56:41.837Z,14.30
2023-04-23T01:59:16.817Z,14.30
2023-04-23T02:01:52.115Z,14.30
2023-04-23T02:04:27.910Z,14.30
2023-04-23T02:07:02.947Z,14.30
2023-04-23T02:09:37.843Z,14.30
2023-04-23T02:12:13.279Z,14.30
2023-04-23T02:14:48.160Z,14.40
2023-04-23T02:17:23.302Z,14.40
2023-04-23T02:19:58.529Z,14.40
2023-04-23T02:22:33.622Z,14.30
2023-04-23T02:25:09.632Z,14.30
2023-04-23T02:27:45.429Z,14.30
2023-04-23T02:30:20.723Z,14.30
2023-04-23T02:32:55.644Z,14.30
2023-04-23T02:35:31.429Z,14.30
2023-04-23T02:38:06.544Z,14.30
2023-04-23T02:40:43.708Z,14.30
2023-04-23T02:43:18.569Z,14.20
2023-04-23T02:45:53.410Z,14.20
2023-04-23T02:48:29.716Z,14.20
2023-04-23T02:51:06.461Z,14.20
2023-04-23T02:53:41.536Z,14.20
2023-04-23T02:56:16.612Z,14.20
2023-04-23T02:58:51.779Z,14.10
2023-04-23T03:01:27.172Z,14.10
2023-04-23T03:04:03.680Z,14.10
2023-04-23T03:06:38.847Z,14.10
2023-04-23T03:09:13.721Z,14.00
2023-04-23T03:11:48.632Z,14.00
2023-04-23T03:14:23.618Z,13.90
2023-04-23T03:16:58.629Z,13.90
2023-04-23T03:19:33.617Z,13.90
2023-04-23T03:22:08.822Z,13.90
2023-04-23T03:24:43.970Z,13.90
2023-04-23T03:27:18.924Z,13.90
2023-04-23T03:29:54.180Z,13.90
2023-04-23T03:32:29.212Z,13.80
2023-04-23T03:35:04.851Z,13.80
2023-04-23T03:37:40.790Z,13.80
2023-04-23T03:40:16.007Z,13.80
2023-04-23T03:42:54.630Z,13.80
2023-04-23T03:45:37.990Z,13.70
2023-04-23T03:48:13.106Z,13.70
2023-04-23T03:50:48.087Z,13.70
2023-04-23T03:53:39.185Z,13.70
2023-04-23T03:56:32.839Z,13.60
2023-04-23T03:59:33.943Z,13.60
2023-04-23T04:02:09.002Z,13.60
2023-04-23T04:04:46.169Z,13.60
2023-04-23T04:07:22.087Z,13.60
2023-04-23T04:09:56.928Z,13.50
2023-04-23T04:12:33.818Z,13.50
2023-04-23T04:15:09.418Z,13.50
2023-04-23T04:17:45.966Z,13.50
2023-04-23T04:20:20.989Z,13.40
2023-04-23T04:22:56.340Z,13.40
2023-04-23T04:25:31.361Z,13.40
2023-04-23T04:28:11.834Z,13.30
2023-04-23T04:30:47.359Z,13.30
2023-04-23T04:33:22.214Z,13.20
2023-04-23T04:35:57.636Z,13.20
2023-04-23T04:38:32.484Z,13.10
2023-04-23T04:41:07.755Z,13.10
2023-04-23T04:43:43.745Z,13.10
2023-04-23T04:46:21.691Z,13.10
2023-04-23T04:48:56.579Z,13.20
2023-04-23T04:51:31.464Z,13.20
2023-04-23T04:54:07.607Z,13.20
2023-04-23T04:56:42.535Z,13.20
2023-04-23T04:59:17.579Z,13.20
2023-04-23T05:01:52.527Z,13.20
2023-04-23T05:04:27.470Z,13.30
2023-04-23T05:07:02.443Z,13.30
2023-04-23T05:09:37.291Z,13.30
2023-04-23T05:12:12.157Z,13.40
2023-04-23T05:14:47.206Z,13.40
2023-04-23T05:17:22.208Z,13.40
2023-04-23T05:19:57.194Z,13.40
2023-04-23T05:22:32.436Z,13.50
2023-04-23T05:25:09.277Z,13.60
2023-04-23T05:27:44.181Z,13.60
2023-04-23T05:30:19.190Z,13.70
2023-04-23T05:32:54.244Z,13.80
2023-04-23T05:35:29.149Z,13.90
2023-04-23T05:38:04.980Z,14.00
2023-04-23T05:40:40.136Z,14.00
2023-04-23T05:43:15.201Z,13.90
2023-04-23T05:45:50.240Z,13.90
2023-04-23T05:48:25.161Z,14.00
2023-04-23T05:51:00.232Z,14.00
2023-04-23T05:53:35.295Z,14.10
2023-04-23T05:56:13.522Z,14.20
2023-04-23T05:58:48.491Z,14.30
2023-04-23T06:01:23.723Z,14.40
2023-04-23T06:03:58.862Z,14.40
2023-04-23T06:06:34.063Z,14.40
2023-04-23T06:09:09.429Z,14.50
2023-04-23T06:11:44.430Z,14.60
2023-04-23T06:14:19.556Z,14.60
2023-04-23T06:16:54.541Z,14.60
2023-04-23T06:19:29.465Z,14.60
2023-04-23T06:22:04.411Z,14.60
2023-04-23T06:24:39.609Z,14.70
2023-04-23T06:27:15.814Z,14.70
2023-04-23T06:29:56.967Z,14.80
2023-04-23T06:32:31.911Z,14.80
2023-04-23T06:35:10.103Z,14.80
2023-04-23T06:37:45.286Z,14.90
2023-04-23T06:40:20.218Z,15.00
2023-04-23T06:42:55.751Z,15.10
2023-04-23T06:45:57.136Z,15.30
2023-04-23T06:48:32.358Z,15.40
2023-04-23T06:51:07.489Z,15.50
2023-04-23T06:53:42.654Z,15.60
2023-04-23T06:56:17.620Z,15.70
2023-04-23T06:58:52.694Z,15.80
2023-04-23T07:01:29.576Z,15.90
2023-04-23T07:04:04.606Z,15.90
2023-04-23T07:06:39.505Z,15.90
2023-04-23T07:09:14.880Z,15.90
2023-04-23T07:11:49.907Z,15.90
2023-04-23T07:14:25.367Z,16.00
2023-04-23T07:17:00.588Z,16.00
2023-04-23T07:19:35.653Z,15.90
2023-04-23T07:22:10.981Z,16.10
2023-04-23T07:24:45.928Z,16.10
2023-04-23T07:27:20.906Z,16.00
2023-04-23T07:29:56.013Z,16.00
2023-04-23T07:32:31.347Z,16.00
2023-04-23T07:35:07.219Z,16.00
2023-04-23T07:37:43.060Z,16.10
2023-04-23T07:40:18.098Z,16.10
2023-04-23T07:42:53.012Z,16.10
2023-04-23T07:45:27.930Z,16.10
2023-04-23T07:48:03.277Z,16.30
2023-04-23T07:50:38.201Z,16.40
2023-04-23T07:53:13.201Z,16.60
2023-04-23T07:55:48.261Z,16.80
2023-04-23T07:58:24.888Z,16.90
2023-04-23T08:00:59.969Z,17.10
2023-04-23T08:03:35.208Z,17.20
2023-04-23T08:06:12.977Z,17.40
2023-04-23T08:08:50.637Z,17.40
2023-04-23T08:11:25.663Z,17.50
2023-04-23T08:14:01.568Z,17.70
2023-04-23T08:16:38.901Z,17.90
2023-04-23T08:19:14.255Z,17.70
2023-04-23T08:21:49.485Z,17.60
2023-04-23T08:24:24.417Z,17.60
2023-04-23T08:26:59.313Z,17.60
2023-04-23T08:29:34.293Z,17.60
2023-04-23T08:32:09.305Z,17.70
2023-04-23T08:34:44.248Z,17.90
2023-04-23T08:37:29.636Z,18.10
2023-04-23T08:40:07.497Z,18.20
2023-04-23T08:42:58.661Z,18.30
2023-04-23T08:45:41.515Z,18.50
2023-04-23T08:48:16.917Z,18.70
2023-04-23T08:50:52.372Z,18.90
2023-04-23T08:53:32.631Z,19.00
2023-04-23T08:56:08.486Z,19.10
2023-04-23T08:58:43.770Z,19.20
2023-04-23T09:01:19.488Z,19.30
2023-04-23T09:03:56.625Z,19.50
2023-04-23T09:06:34.552Z,19.60
2023-04-23T09:09:09.994Z,19.60
2023-04-23T09:11:45.460Z,19.60
2023-04-23T09:14:22.576Z,19.60
2023-04-23T09:16:57.662Z,19.50
2023-04-23T09:19:32.858Z,19.50
2023-04-23T09:22:08.217Z,19.40
2023-04-23T09:24:43.874Z,19.60
2023-04-23T09:27:26.315Z,19.60
2023-04-23T09:30:04.916Z,19.70
2023-04-23T09:32:46.020Z,19.90
2023-04-23T09:35:21.143Z,20.10
2023-04-23T09:37:56.131Z,20.40
2023-04-23T09:40:31.111Z,20.70
2023-04-23T09:43:07.511Z,20.80
2023-04-23T09:45:50.284Z,20.90
2023-04-23T09:48:41.235Z,20.70
2023-04-23T09:51:16.223Z,20.60
2023-04-23T09:53:51.374Z,20.70
2023-04-23T09:56:26.415Z,20.70
2023-04-23T09:59:02.255Z,20.80
2023-04-23T10:01:37.219Z,20.90
2023-04-23T10:04:18.370Z,20.90
2023-04-23T10:07:17.855Z,21.00
2023-04-23T10:09:56.963Z,21.20
2023-04-23T10:12:52.261Z,21.40
2023-04-23T10:15:28.025Z,21.60
2023-04-23T10:18:06.054Z,21.60
2023-04-23T10:20:42.828Z,21.60
2023-04-23T10:23:20.508Z,21.90
2023-04-23T10:25:56.324Z,21.90
2023-04-23T10:28:33.899Z,21.80
2023-04-23T10:31:10.915Z,21.70
2023-04-23T10:36:30.851Z,21.60
2023-04-23T10:39:09.406Z,21.50
2023-04-23T10:41:44.858Z,21.60
2023-04-23T10:44:45.063Z,21.70
2023-04-23T10:47:20.653Z,21.60
2023-04-23T10:49:56.053Z,21.60
2023-04-23T10:52:32.895Z,21.90
2023-04-23T10:55:21.909Z,22.20
2023-04-23T10:58:05.934Z,22.30
2023-04-23T11:00:46.672Z,22.40
2023-04-23T11:03:43.344Z,22.40
2023-04-23T11:06:47.995Z,22.60
2023-04-23T11:09:38.726Z,22.70
2023-04-23T11:12:20.637Z,23.00
2023-04-23T11:14:57.164Z,22.90
2023-04-23T11:17:32.177Z,23.30
2023-04-23T11:20:10.671Z,23.40
2023-04-23T11:22:50.610Z,23.40
2023-04-23T11:25:27.992Z,23.40
2023-04-23T11:28:04.633Z,23.50
2023-04-23T11:30:39.738Z,23.40
2023-04-23T11:33:14.837Z,23.40
2023-04-23T11:35:50.284Z,23.40
2023-04-23T11:38:33.673Z,23.50
2023-04-23T11:41:08.793Z,23.60
2023-04-23T11:43:51.619Z,23.80
2023-04-23T11:46:27.224Z,24.00
2023-04-23T11:49:03.872Z,24.00
2023-04-23T11:51:45.904Z,24.30
2023-04-23T11:54:27.520Z,24.40
2023-04-23T11:57:09.896Z,24.40
2023-04-23T11:59:46.418Z,24.40
2023-04-23T12:02:25.144Z,24.50
2023-04-23T12:05:10.167Z,24.60
2023-04-23T12:07:50.798Z,24.50
2023-04-23T12:10:25.776Z,24.20
2023-04-23T12:13:02.314Z,24.10
2023-04-23T12:15:50.319Z,24.10
2023-04-23T12:18:38.925Z,24.30
2023-04-23T12:21:14.790Z,24.40
2023-04-23T12:23:51.966Z,24.40
2023-04-23T12:26:27.290Z,24.10
2023-04-23T12:29:02.358Z,24.00
2023-04-23T12:31:39.066Z,24.00
2023-04-23T12:34:17.001Z,24.10
2023-04-23T12:36:55.181Z,24.10
2023-04-23T12:39:34.991Z,24.20
2023-04-23T12:42:10.505Z,24.20
2023-04-23T12:44:45.824Z,24.40
2023-04-23T12:47:20.687Z,24.50
2023-04-23T12:49:56.711Z,24.60
2023-04-23T12:52:31.720Z,24.60
2023-04-23T12:55:06.813Z,24.60
2023-04-23T12:57:41.785Z,24.60
2023-04-23T13:00:17.433Z,24.60
2023-04-23T13:02:55.084Z,24.60
2023-04-23T13:05:30.752Z,25.00
2023-04-23T13:08:05.618Z,25.10
2023-04-23T13:10:41.159Z,25.30
2023-04-23T13:13:16.916Z,25.30
2023-04-23T13:15:52.179Z,25.30
2023-04-23T13:18:27.155Z,25.10
2023-04-23T13:21:02.058Z,25.30
2023-04-23T13:23:37.549Z,25.20
2023-04-23T13:26:13.434Z,25.60
2023-04-23T13:28:48.299Z,25.70
2023-04-23T13:31:23.203Z,26.00
2023-04-23T13:33:58.892Z,26.30
2023-04-23T13:36:33.870Z,26.60
2023-04-23T13:39:10.936Z,26.70
2023-04-23T13:41:49.458Z,26.90
2023-04-23T13:44:32.578Z,27.20
2023-04-23T13:47:07.542Z,27.20
2023-04-23T13:49:42.606Z,26.50
2023-04-23T13:52:17.649Z,26.00
2023-04-23T13:54:54.531Z,26.20
2023-04-23T13:57:29.725Z,26.60
2023-04-23T14:00:06.465Z,26.40
2023-04-23T14:02:41.673Z,26.30
2023-04-23T14:05:16.679Z,26.30
2023-04-23T14:07:51.713Z,26.50
2023-04-23T14:10:27.772Z,26.30
2023-04-23T14:13:04.749Z,26.40
2023-04-23T14:15:39.674Z,26.50
2023-04-23T14:18:14.633Z,26.70
2023-04-23T14:20:49.592Z,26.90
2023-04-23T14:23:25.300Z,26.90
2023-04-23T14:26:05.635Z,26.90
2023-04-23T14:28:45.963Z,27.20
2023-04-23T14:31:20.896Z,26.90
2023-04-23T14:33:58.766Z,26.80
2023-04-23T14:36:33.679Z,26.10
2023-04-23T14:39:09.200Z,25.90
2023-04-23T14:41:44.599Z,26.00
2023-04-23T14:44:19.512Z,26.20
2023-04-23T14:46:55.833Z,26.00
2023-04-23T14:49:30.964Z,26.00
2023-04-23T14:52:06.084Z,25.30
2023-04-23T14:54:40.950Z,25.10
2023-04-23T14:57:16.093Z,24.70
2023-04-23T14:59:51.213Z,24.50
2023-04-23T15:02:26.335Z,24.30
2023-04-23T15:05:01.456Z,24.10
2023-04-23T15:07:37.647Z,23.80
2023-04-23T15:10:12.664Z,23.60
2023-04-23T15:12:56.776Z,23.40
2023-04-23T15:15:49.328Z,23.10
2023-04-23T15:18:24.176Z,22.70
2023-04-23T15:20:59.059Z,22.40
2023-04-23T15:23:34.085Z,21.90
2023-04-23T15:26:09.419Z,21.60
2023-04-23T15:28:45.372Z,21.40
2023-04-23T15:31:20.311Z,21.50
2023-04-23T15:33:55.273Z,21.60
2023-04-23T15:36:33.010Z,21.70
2023-04-23T15:39:08.659Z,21.80
2023-04-23T15:41:45.445Z,22.00
2023-04-23T15:44:21.204Z,22.20
2023-04-23T15:46:56.054Z,22.40
2023-04-23T15:49:31.009Z,22.30
2023-04-23T15:52:05.879Z,22.20
2023-04-23T15:54:40.835Z,21.90
2023-04-23T15:57:15.751Z,21.70
2023-04-23T15:59:50.658Z,21.50
2023-04-23T16:02:25.759Z,21.30
2023-04-23T16:05:01.284Z,21.20
2023-04-23T16:07:36.228Z,21.10
2023-04-23T16:10:11.518Z,21.00
2023-04-23T16:12:48.551Z,20.90
2023-04-23T16:15:23.505Z,20.70
2023-04-23T16:18:00.082Z,20.60
2023-04-23T16:20:36.055Z,20.60
2023-04-23T16:23:11.357Z,20.60
2023-04-23T16:25:46.240Z,20.50
2023-04-23T16:28:21.362Z,20.40
2023-04-23T16:30:56.565Z,20.30
2023-04-23T16:33:31.530Z,20.20
2023-04-23T16:36:06.821Z,20.10
2023-04-23T16:38:44.921Z,20.10
2023-04-23T16:41:20.154Z,19.80
2023-04-23T16:43:55.329Z,18.90
2023-04-23T16:46:31.710Z,18.20
2023-04-23T16:49:07.183Z,17.50
2023-04-23T16:51:42.084Z,16.80
2023-04-23T16:54:18.425Z,16.30
2023-04-23T16:56:53.352Z,16.10
2023-04-23T16:59:28.713Z,16.10
2023-04-23T17:02:03.791Z,16.20
2023-04-23T17:04:38.876Z,16.30
2023-04-23T17:07:14.350Z,16.40
2023-04-23T17:09:49.371Z,16.40
2023-04-23T17:12:24.398Z,16.40
2023-04-23T17:14:59.319Z,16.40
2023-04-23T17:17:34.232Z,16.40
2023-04-23T17:20:09.555Z,16.40
2023-04-23T17:22:44.497Z,16.40
2023-04-23T17:25:19.504Z,16.40
2023-04-23T17:27:54.608Z,16.30
2023-04-23T17:30:29.539Z,16.30
2023-04-23T17:33:04.736Z,16.30
2023-04-23T17:35:40.219Z,16.30
2023-04-23T17:38:19.675Z,16.20
2023-04-23T17:40:55.131Z,16.20
2023-04-23T17:43:31.799Z,16.10
2023-04-23T17:46:06.801Z,16.00
2023-04-23T17:48:41.888Z,16.00
2023-04-23T17:51:16.815Z,16.00
2023-04-23T17:53:51.980Z,16.00
2023-04-23T17:56:27.030Z,16.00
2023-04-23T17:59:02.089Z,16.00
2023-04-23T18:01:37.377Z,16.00
2023-04-23T18:04:13.447Z,16.00
2023-04-23T18:06:50.055Z,16.00
2023-04-23T18:09:25.295Z,15.90
2023-04-23T18:12:00.237Z,15.90
2023-04-23T18:14:35.770Z,15.80
2023-04-23T18:17:10.797Z,15.80
2023-04-23T18:19:45.775Z,15.70
2023-04-23T18:22:24.384Z,15.70
2023-04-23T18:24:59.545Z,15.60
2023-04-23T18:27:34.479Z,15.60
2023-04-23T18:30:11.769Z,15.50
2023-04-23T18:32:50.123Z,15.50
2023-04-23T18:35:25.447Z,15.40
2023-04-23T18:38:06.893Z,15.30
2023-04-23T18:40:41.965Z,15.30
2023-04-23T18:43:16.902Z,15.20
2023-04-23T18:45:51.864Z,15.20
2023-04-23T18:48:35.860Z,15.10
2023-04-23T18:51:21.474Z,15.00
2023-04-23T18:53:56.642Z,15.00
2023-04-23T18:56:31.958Z,15.00
2023-04-23T18:59:06.911Z,14.90
2023-04-23T19:01:43.257Z,14.90
2023-04-23T19:04:18.385Z,14.90
2023-04-23T19:06:53.413Z,14.80
2023-04-23T19:09:28.460Z,14.80
2023-04-23T19:12:03.667Z,14.70
2023-04-23T19:14:38.602Z,14.70
2023-04-23T19:17:13.544Z,14.70
2023-04-23T19:19:48.466Z,14.70
2023-04-23T19:22:25.675Z,14.70
2023-04-23T19:25:00.904Z,14.50
2023-04-23T19:27:36.267Z,14.50
2023-04-23T19:30:11.744Z,14.60
2023-04-23T19:32:46.863Z,14.60
2023-04-23T19:35:22.181Z,14.60
2023-04-23T19:38:01.744Z,14.60
2023-04-23T19:40:36.951Z,14.60
2023-04-23T19:43:12.781Z,14.60
2023-04-23T19:45:47.847Z,14.60
2023-04-23T19:48:23.491Z,14.60
2023-04-23T19:50:59.758Z,14.50
2023-04-23T19:53:34.636Z,14.40
2023-04-23T19:56:13.791Z,14.20
2023-04-23T19:58:50.781Z,14.20
2023-04-23T20:01:28.179Z,14.10
2023-04-23T20:04:07.042Z,14.10
2023-04-23T20:06:42.044Z,14.00
2023-04-23T20:09:21.570Z,13.90
2023-04-23T20:11:56.640Z,13.80
2023-04-23T20:14:31.621Z,13.80
2023-04-23T20:17:07.442Z,13.80
2023-04-23T20:19:43.168Z,13.70
2023-04-23T20:22:18.096Z,13.70
2023-04-23T20:24:53.158Z,13.70
2023-04-23T20:27:28.402Z,13.70
2023-04-23T20:30:05.126Z,13.70
2023-04-23T20:32:40.082Z,13.60
2023-04-23T20:35:15.462Z,13.60
2023-04-23T20:37:54.474Z,13.60
2023-04-23T20:40:34.283Z,13.60
2023-04-23T20:43:09.899Z,13.60
2023-04-23T20:45:46.441Z,13.50
2023-04-23T20:48:22.060Z,13.50
2023-04-23T20:50:57.774Z,13.40
2023-04-23T20:53:32.975Z,13.40
2023-04-23T20:56:07.835Z,13.40
2023-04-23T20:58:42.828Z,13.40
2023-04-23T21:01:17.734Z,13.40
2023-04-23T21:03:53.523Z,13.40
2023-04-23T21:06:31.133Z,13.30
2023-04-23T21:09:07.201Z,13.30
2023-04-23T21:11:42.510Z,13.30
2023-04-23T21:14:17.819Z,13.30
2023-04-23T21:16:56.149Z,13.20
2023-04-23T21:19:30.985Z,13.20
2023-04-23T21:22:05.843Z,13.20
2023-04-23T21:24:40.681Z,13.20
2023-04-23T21:27:21.375Z,13.10
2023-04-23T21:29:57.538Z,13.10
2023-04-23T21:32:32.695Z,13.10
2023-04-23T21:35:08.183Z,13.10
2023-04-23T21:37:43.050Z,13.00
2023-04-23T21:40:17.994Z,13.00
2023-04-23T21:42:53.077Z,13.00
2023-04-23T21:45:28.415Z,12.90
2023-04-23T21:48:03.986Z,12.90
2023-04-23T21:50:38.958Z,12.90
2023-04-23T21:53:14.411Z,12.90
2023-04-23T21:55:49.245Z,12.90
2023-04-23T21:58:24.160Z,12.90
2023-04-23T22:00:59.064Z,12.80
2023-04-23T22:03:37.541Z,12.80
2023-04-23T22:06:18.455Z,12.80
2023-04-23T22:08:54.568Z,12.70
2023-04-23T22:11:31.283Z,12.70
2023-04-23T22:14:06.361Z,12.60
2023-04-23T22:16:41.363Z,12.60
2023-04-23T22:19:18.718Z,12.60
2023-04-23T22:21:54.852Z,12.60
2023-04-23T22:24:29.790Z,12.60
2023-04-23T22:27:04.710Z,12.60
2023-04-23T22:29:39.686Z,12.60
2023-04-23T22:32:14.644Z,12.60
2023-04-23T22:34:49.844Z,12.60
2023-04-23T22:37:25.006Z,12.50
2023-04-23T22:40:00.184Z,12.50
2023-04-23T22:42:35.623Z,12.40
2023-04-23T22:45:11.079Z,12.40
2023-04-23T22:47:46.023Z,12.40
2023-04-23T22:50:20.968Z,12.40
2023-04-23T22:52:56.356Z,12.40
2023-04-23T22:55:31.520Z,12.40
2023-04-23T22:58:06.474Z,12.30
2023-04-23T23:00:41.580Z,12.40
2023-04-23T23:03:16.732Z,12.40
2023-04-23T23:05:51.784Z,12.40
2023-04-23T23:08:26.831Z,12.40
2023-04-23T23:11:01.692Z,12.30
2023-04-23T23:13:37.213Z,12.30
2023-04-23T23:16:12.172Z,12.30
2023-04-23T23:18:47.278Z,12.30
2023-04-23T23:21:22.137Z,12.30
2023-04-23T23:23:57.019Z,12.30
2023-04-23T23:26:32.033Z,12.20
2023-04-23T23:29:08.058Z,12.20
2023-04-23T23:31:44.261Z,12.20
2023-04-23T23:34:19.234Z,12.20
2023-04-23T23:37:03.216Z,12.20
2023-04-23T23:39:38.145Z,12.30
2023-04-23T23:42:13.026Z,12.30
2023-04-23T23:44:47.905Z,12.30
2023-04-23T23:47:22.833Z,12.20
2023-04-23T23:49:57.707Z,12.20
2023-04-23T23:52:32.815Z,12.10
2023-04-23T23:55:07.915Z,12.10
2023-04-23T23:57:42.788Z,12.20
